Daffan, Texas
Current Conditions -  °F | °C
As of 8:35 PM on Wednesday 22 Oct 2014 (Local Time) from KEDC Reporting Station
Broken Clouds Broken Clouds  
Wind Chill: 72°   Ceiling: 4700
Heat Index: 72°   Visibility: 10mi
Dew Point: 59°   Wind: 5mph
Humidity: 64%   Direction: 70°ENE
Pressure: 30.09"   Gusts: NA
Location:  30.352°N, 97.5205°W
Report Text: KEDC 230135Z AUTO 07004KT 10SM FEW037 BKN047 22/15 A3009 RMK AO2
Loading
Personal Weather Stations






























Interactive Weather Map New forecast layout! Learn more

10-Day Weather Forecast

Advertisements
Track Severe Weather on mobile